sensor_id;sensor_type;location;lat;lon;timestamp;pressure;altitude;pressure_sealevel;temperature;humidity
12624;BME280;6377;42.836;23.998;2024-01-15T00:00:44;94977.84;;;-2.74;100.00
12624;BME280;6377;42.836;23.998;2024-01-15T00:03:12;95058.53;;;-2.23;100.00
12624;BME280;6377;42.836;23.998;2024-01-15T00:05:44;94971.06;;;-2.64;100.00
12624;BME280;6377;42.836;23.998;2024-01-15T00:08:11;95051.09;;;-2.17;100.00
12624;BME280;6377;42.836;23.998;2024-01-15T00:10:42;95026.41;;;-2.21;100.00
12624;BME280;6377;42.836;23.998;2024-01-15T00:13:12;94983.88;;;-2.63;100.00
12624;BME280;6377;42.836;23.998;2024-01-15T00:15:40;95037.81;;;-2.12;100.00
12624;BME280;6377;42.836;23.998;2024-01-15T00:18:07;95098.25;;;-1.90;100.00
12624;BME280;6377;42.836;23.998;2024-01-15T00:20:35;94973.28;;;-2.82;100.00
12624;BME280;6377;42.836;23.998;2024-01-15T00:23:05;95079.97;;;-2.10;100.00
12624;BME280;6377;42.836;23.998;2024-01-15T00:25:36;95044.28;;;-2.29;100.00
12624;BME280;6377;42.836;23.998;2024-01-15T00:28:05;95071.25;;;-2.20;100.00
12624;BME280;6377;42.836;23.998;2024-01-15T00:30:33;95074.16;;;-2.47;100.00
12624;BME280;6377;42.836;23.998;2024-01-15T00:33:04;95084.16;;;-2.32;100.00
12624;BME280;6377;42.836;23.998;2024-01-15T00:35:34;94992.34;;;-3.18;100.00
12624;BME280;6377;42.836;23.998;2024-01-15T00:38:04;95086.25;;;-2.59;100.00
12624;BME280;6377;42.836;23.998;2024-01-15T00:40:35;95054.22;;;-2.58;100.00
12624;BME280;6377;42.836;23.998;2024-01-15T00:43:03;94955.75;;;-3.24;100.00
12624;BME280;6377;42.836;23.998;2024-01-15T00:45:33;95044.09;;;-2.61;100.00
12624;BME280;6377;42.836;23.998;2024-01-15T00:48:03;95009.22;;;-2.90;100.00
12624;BME280;6377;42.836;23.998;2024-01-15T00:50:34;95022.38;;;-2.93;100.00
12624;BME280;6377;42.836;23.998;2024-01-15T00:53:04;95092.88;;;-2.44;100.00
12624;BME280;6377;42.836;23.998;2024-01-15T00:55:35;95062.81;;;-2.68;100.00
12624;BME280;6377;42.836;23.998;2024-01-15T00:58:03;95047.44;;;-2.59;100.00
12624;BME280;6377;42.836;23.998;2024-01-15T01:00:31;95035.72;;;-2.75;100.00
12624;BME280;6377;42.836;23.998;2024-01-15T01:03:05;94968.47;;;-3.21;100.00
12624;BME280;6377;42.836;23.998;2024-01-15T01:05:34;95105.75;;;-2.66;100.00
12624;BME280;6377;42.836;23.998;2024-01-15T01:08:04;95040.38;;;-2.92;100.00
12624;BME280;6377;42.836;23.998;2024-01-15T01:10:33;95117.31;;;-2.59;100.00
12624;BME280;6377;42.836;23.998;2024-01-15T01:13:01;95025.56;;;-2.90;100.00
12624;BME280;6377;42.836;23.998;2024-01-15T01:15:29;95031.16;;;-2.72;100.00
12624;BME280;6377;42.836;23.998;2024-01-15T01:17:57;95055.28;;;-2.60;100.00
12624;BME280;6377;42.836;23.998;2024-01-15T01:20:25;95041.88;;;-2.65;100.00
12624;BME280;6377;42.836;23.998;2024-01-15T01:22:53;95080.06;;;-2.34;100.00
12624;BME280;6377;42.836;23.998;2024-01-15T01:25:22;95028.94;;;-2.54;100.00
12624;BME280;6377;42.836;23.998;2024-01-15T01:27:50;95046.75;;;-2.39;100.00
12624;BME280;6377;42.836;23.998;2024-01-15T01:30:21;95057.81;;;-2.37;100.00
12624;BME280;6377;42.836;23.998;2024-01-15T01:32:49;94997.97;;;-2.67;100.00
12624;BME280;6377;42.836;23.998;2024-01-15T01:35:17;95039.31;;;-2.43;100.00
12624;BME280;6377;42.836;23.998;2024-01-15T01:37:47;95062.44;;;-2.07;100.00
12624;BME280;6377;42.836;23.998;2024-01-15T01:40:17;95009.66;;;-2.61;100.00
12624;BME280;6377;42.836;23.998;2024-01-15T01:42:49;95036.03;;;-2.45;100.00
12624;BME280;6377;42.836;23.998;2024-01-15T01:45:20;95008.59;;;-2.59;100.00
12624;BME280;6377;42.836;23.998;2024-01-15T01:47:48;95027.78;;;-2.50;100.00
12624;BME280;6377;42.836;23.998;2024-01-15T01:50:16;95030.25;;;-2.38;100.00
12624;BME280;6377;42.836;23.998;2024-01-15T01:52:44;95042.75;;;-2.32;100.00
12624;BME280;6377;42.836;23.998;2024-01-15T01:55:15;95071.50;;;-2.23;100.00
12624;BME280;6377;42.836;23.998;2024-01-15T01:57:57;95018.41;;;-2.86;100.00
12624;BME280;6377;42.836;23.998;2024-01-15T02:00:29;95000.16;;;-2.96;100.00
12624;BME280;6377;42.836;23.998;2024-01-15T02:03:02;95058.78;;;-3.07;100.00
12624;BME280;6377;42.836;23.998;2024-01-15T02:05:31;95010.09;;;-3.13;100.00
12624;BME280;6377;42.836;23.998;2024-01-15T02:08:02;94974.53;;;-3.33;100.00
12624;BME280;6377;42.836;23.998;2024-01-15T02:10:33;95045.84;;;-2.72;100.00
12624;BME280;6377;42.836;23.998;2024-01-15T02:13:03;94781.66;;;-4.39;100.00
12624;BME280;6377;42.836;23.998;2024-01-15T02:15:35;94992.53;;;-2.86;100.00
12624;BME280;6377;42.836;23.998;2024-01-15T02:18:06;95000.44;;;-2.76;100.00
12624;BME280;6377;42.836;23.998;2024-01-15T02:20:37;94980.69;;;-2.77;100.00
12624;BME280;6377;42.836;23.998;2024-01-15T02:23:11;94994.00;;;-2.49;100.00
12624;BME280;6377;42.836;23.998;2024-01-15T02:25:40;94990.84;;;-2.30;100.00
12624;BME280;6377;42.836;23.998;2024-01-15T02:28:10;94937.97;;;-2.72;100.00
12624;BME280;6377;42.836;23.998;2024-01-15T02:30:39;94953.75;;;-2.64;100.00
12624;BME280;6377;42.836;23.998;2024-01-15T02:33:10;95023.34;;;-2.15;100.00
12624;BME280;6377;42.836;23.998;2024-01-15T02:35:39;94983.72;;;-2.84;100.00
12624;BME280;6377;42.836;23.998;2024-01-15T02:38:07;94977.63;;;-2.83;100.00
12624;BME280;6377;42.836;23.998;2024-01-15T02:40:37;95015.63;;;-2.72;100.00
12624;BME280;6377;42.836;23.998;2024-01-15T02:43:06;94944.72;;;-3.15;100.00
12624;BME280;6377;42.836;23.998;2024-01-15T02:45:34;94980.06;;;-2.92;100.00
12624;BME280;6377;42.836;23.998;2024-01-15T02:48:02;94968.28;;;-2.96;100.00
12624;BME280;6377;42.836;23.998;2024-01-15T02:50:33;94982.03;;;-3.07;100.00
12624;BME280;6377;42.836;23.998;2024-01-15T02:53:05;94961.50;;;-2.86;100.00
12624;BME280;6377;42.836;23.998;2024-01-15T02:55:37;94994.22;;;-2.63;100.00
12624;BME280;6377;42.836;23.998;2024-01-15T02:58:16;95006.75;;;-2.92;100.00
12624;BME280;6377;42.836;23.998;2024-01-15T03:00:53;94995.66;;;-2.59;100.00
12624;BME280;6377;42.836;23.998;2024-01-15T03:03:21;94939.13;;;-2.87;100.00
12624;BME280;6377;42.836;23.998;2024-01-15T03:05:51;94983.28;;;-2.55;100.00
12624;BME280;6377;42.836;23.998;2024-01-15T03:08:25;94960.25;;;-3.15;100.00
12624;BME280;6377;42.836;23.998;2024-01-15T03:10:57;94960.97;;;-3.02;100.00
12624;BME280;6377;42.836;23.998;2024-01-15T03:13:25;94919.25;;;-2.87;100.00
12624;BME280;6377;42.836;23.998;2024-01-15T03:15:52;94956.22;;;-2.73;100.00
12624;BME280;6377;42.836;23.998;2024-01-15T03:18:20;94974.84;;;-2.35;100.00
12624;BME280;6377;42.836;23.998;2024-01-15T03:20:51;94918.56;;;-2.66;100.00
12624;BME280;6377;42.836;23.998;2024-01-15T03:23:19;94928.31;;;-2.70;100.00
12624;BME280;6377;42.836;23.998;2024-01-15T03:25:47;94957.97;;;-2.41;100.00
12624;BME280;6377;42.836;23.998;2024-01-15T03:28:21;94643.81;;;-4.47;100.00
12624;BME280;6377;42.836;23.998;2024-01-15T03:30:53;94891.75;;;-2.88;100.00
12624;BME280;6377;42.836;23.998;2024-01-15T03:33:21;94868.56;;;-3.11;100.00
12624;BME280;6377;42.836;23.998;2024-01-15T03:35:49;94870.91;;;-3.19;100.00
12624;BME280;6377;42.836;23.998;2024-01-15T03:38:16;94896.56;;;-2.94;100.00
12624;BME280;6377;42.836;23.998;2024-01-15T03:40:44;94885.91;;;-3.35;100.00
12624;BME280;6377;42.836;23.998;2024-01-15T03:43:13;94899.78;;;-3.36;100.00
12624;BME280;6377;42.836;23.998;2024-01-15T03:45:47;94879.91;;;-3.47;100.00
12624;BME280;6377;42.836;23.998;2024-01-15T03:48:16;94883.34;;;-3.35;100.00
12624;BME280;6377;42.836;23.998;2024-01-15T03:50:53;94873.59;;;-3.32;100.00
12624;BME280;6377;42.836;23.998;2024-01-15T03:53:31;94877.81;;;-3.31;100.00
12624;BME280;6377;42.836;23.998;2024-01-15T03:55:59;94854.31;;;-3.39;100.00
12624;BME280;6377;42.836;23.998;2024-01-15T03:58:30;94853.16;;;-3.24;100.00
12624;BME280;6377;42.836;23.998;2024-01-15T04:01:00;94883.19;;;-2.88;100.00
12624;BME280;6377;42.836;23.998;2024-01-15T04:03:28;94919.16;;;-2.74;100.00
12624;BME280;6377;42.836;23.998;2024-01-15T04:05:56;94922.81;;;-2.76;100.00
12624;BME280;6377;42.836;23.998;2024-01-15T04:08:23;94842.66;;;-3.45;100.00
12624;BME280;6377;42.836;23.998;2024-01-15T04:10:54;94916.91;;;-3.01;100.00
12624;BME280;6377;42.836;23.998;2024-01-15T04:13:22;94892.31;;;-3.17;100.00
12624;BME280;6377;42.836;23.998;2024-01-15T04:16:05;94846.38;;;-3.60;100.00
12624;BME280;6377;42.836;23.998;2024-01-15T04:18:37;94880.09;;;-3.15;100.00
12624;BME280;6377;42.836;23.998;2024-01-15T04:21:08;94870.22;;;-3.10;100.00
12624;BME280;6377;42.836;23.998;2024-01-15T04:23:36;94838.56;;;-3.25;100.00
12624;BME280;6377;42.836;23.998;2024-01-15T04:26:07;94951.63;;;-2.70;100.00
12624;BME280;6377;42.836;23.998;2024-01-15T04:28:35;94836.56;;;-3.32;100.00
12624;BME280;6377;42.836;23.998;2024-01-15T04:31:07;94875.50;;;-3.01;100.00
12624;BME280;6377;42.836;23.998;2024-01-15T04:33:35;94828.47;;;-3.28;100.00
12624;BME280;6377;42.836;23.998;2024-01-15T04:36:04;94770.16;;;-3.65;100.00
12624;BME280;6377;42.836;23.998;2024-01-15T04:38:35;94870.47;;;-2.80;100.00
12624;BME280;6377;42.836;23.998;2024-01-15T04:41:03;94863.88;;;-2.84;100.00
12624;BME280;6377;42.836;23.998;2024-01-15T04:43:31;94835.31;;;-2.83;100.00
12624;BME280;6377;42.836;23.998;2024-01-15T04:45:58;94815.53;;;-2.84;100.00
12624;BME280;6377;42.836;23.998;2024-01-15T04:48:30;94867.63;;;-2.66;100.00
12624;BME280;6377;42.836;23.998;2024-01-15T04:50:58;94843.06;;;-2.94;100.00
12624;BME280;6377;42.836;23.998;2024-01-15T04:53:29;94879.28;;;-2.94;100.00
12624;BME280;6377;42.836;23.998;2024-01-15T04:55:58;94871.63;;;-2.84;100.00
12624;BME280;6377;42.836;23.998;2024-01-15T04:58:26;94727.88;;;-3.42;100.00
12624;BME280;6377;42.836;23.998;2024-01-15T05:00:57;94893.03;;;-2.38;100.00
12624;BME280;6377;42.836;23.998;2024-01-15T05:03:58;94872.91;;;-2.45;100.00
12624;BME280;6377;42.836;23.998;2024-01-15T05:06:31;94850.34;;;-3.10;100.00
12624;BME280;6377;42.836;23.998;2024-01-15T05:09:05;94900.59;;;-2.79;100.00
12624;BME280;6377;42.836;23.998;2024-01-15T05:11:43;94822.06;;;-3.68;100.00
12624;BME280;6377;42.836;23.998;2024-01-15T05:14:39;94862.13;;;-3.52;100.00
12624;BME280;6377;42.836;23.998;2024-01-15T05:17:34;94891.13;;;-3.13;100.00
12624;BME280;6377;42.836;23.998;2024-01-15T05:23:25;94863.41;;;-3.11;100.00
12624;BME280;6377;42.836;23.998;2024-01-15T05:28:40;94832.94;;;-3.30;100.00
12624;BME280;6377;42.836;23.998;2024-01-15T05:31:39;94819.31;;;-3.21;100.00
12624;BME280;6377;42.836;23.998;2024-01-15T05:57:02;94819.78;;;-2.71;100.00
12624;BME280;6377;42.836;23.998;2024-01-15T06:00:00;94852.53;;;-2.28;100.00
12624;BME280;6377;42.836;23.998;2024-01-15T06:35:08;94658.91;;;-3.30;100.00
12624;BME280;6377;42.836;23.998;2024-01-15T06:43:39;94805.22;;;-2.41;100.00
12624;BME280;6377;42.836;23.998;2024-01-15T06:46:44;94816.09;;;-2.47;100.00
12624;BME280;6377;42.836;23.998;2024-01-15T06:55:20;94816.31;;;-2.39;100.00
12624;BME280;6377;42.836;23.998;2024-01-15T06:58:08;94767.22;;;-2.40;100.00
12624;BME280;6377;42.836;23.998;2024-01-15T07:06:49;94835.81;;;-1.92;100.00
12624;BME280;6377;42.836;23.998;2024-01-15T07:09:45;94822.22;;;-1.84;100.00
12624;BME280;6377;42.836;23.998;2024-01-15T07:12:12;94816.59;;;-1.89;100.00
12624;BME280;6377;42.836;23.998;2024-01-15T07:14:39;94732.28;;;-2.46;100.00
12624;BME280;6377;42.836;23.998;2024-01-15T07:17:06;94732.28;;;-2.46;100.00
12624;BME280;6377;42.836;23.998;2024-01-15T07:19:33;94651.91;;;-2.97;100.00
12624;BME280;6377;42.836;23.998;2024-01-15T07:22:00;94818.47;;;-1.59;100.00
12624;BME280;6377;42.836;23.998;2024-01-15T07:24:27;94819.47;;;-1.51;100.00
12624;BME280;6377;42.836;23.998;2024-01-15T07:26:56;94811.19;;;-1.45;100.00
12624;BME280;6377;42.836;23.998;2024-01-15T07:29:23;94812.47;;;-1.39;100.00
12624;BME280;6377;42.836;23.998;2024-01-15T07:31:50;94736.13;;;-1.67;100.00
12624;BME280;6377;42.836;23.998;2024-01-15T07:34:18;94807.31;;;-1.09;100.00
12624;BME280;6377;42.836;23.998;2024-01-15T07:36:45;94805.19;;;-0.94;100.00
12624;BME280;6377;42.836;23.998;2024-01-15T07:39:12;94745.84;;;-1.08;100.00
12624;BME280;6377;42.836;23.998;2024-01-15T07:41:40;94802.84;;;-0.58;100.00
12624;BME280;6377;42.836;23.998;2024-01-15T07:44:09;94791.25;;;-0.44;100.00
12624;BME280;6377;42.836;23.998;2024-01-15T07:46:36;94662.66;;;-1.17;100.00
12624;BME280;6377;42.836;23.998;2024-01-15T07:49:03;94788.03;;;-0.27;100.00
12624;BME280;6377;42.836;23.998;2024-01-15T07:51:31;94791.84;;;-0.12;100.00
12624;BME280;6377;42.836;23.998;2024-01-15T07:53:58;94791.75;;;-0.01;100.00
12624;BME280;6377;42.836;23.998;2024-01-15T07:56:25;94791.88;;;0.08;100.00
12624;BME280;6377;42.836;23.998;2024-01-15T07:58:53;94800.25;;;0.11;100.00
12624;BME280;6377;42.836;23.998;2024-01-15T08:01:22;94795.44;;;0.16;100.00
12624;BME280;6377;42.836;23.998;2024-01-15T08:03:49;94800.09;;;0.13;100.00
12624;BME280;6377;42.836;23.998;2024-01-15T08:06:16;94789.00;;;0.01;100.00
12624;BME280;6377;42.836;23.998;2024-01-15T08:08:43;94760.97;;;0.05;100.00
12624;BME280;6377;42.836;23.998;2024-01-15T08:11:11;94753.69;;;0.18;100.00
12624;BME280;6377;42.836;23.998;2024-01-15T08:13:38;94769.41;;;0.45;100.00
12624;BME280;6377;42.836;23.998;2024-01-15T08:16:05;94736.03;;;0.40;100.00
12624;BME280;6377;42.836;23.998;2024-01-15T08:18:34;94739.84;;;0.27;100.00
12624;BME280;6377;42.836;23.998;2024-01-15T08:21:01;94797.13;;;0.83;100.00
12624;BME280;6377;42.836;23.998;2024-01-15T08:23:28;94784.94;;;0.83;100.00
12624;BME280;6377;42.836;23.998;2024-01-15T08:25:56;94776.94;;;1.04;100.00
12624;BME280;6377;42.836;23.998;2024-01-15T08:28:24;94783.06;;;1.12;100.00
12624;BME280;6377;42.836;23.998;2024-01-15T08:30:51;94779.47;;;1.23;100.00
12624;BME280;6377;42.836;23.998;2024-01-15T08:33:18;94778.84;;;1.39;100.00
12624;BME280;6377;42.836;23.998;2024-01-15T08:35:47;94793.94;;;1.35;100.00
12624;BME280;6377;42.836;23.998;2024-01-15T08:38:14;94780.88;;;1.45;100.00
12624;BME280;6377;42.836;23.998;2024-01-15T08:40:41;94701.69;;;1.10;100.00
12624;BME280;6377;42.836;23.998;2024-01-15T08:43:08;94803.06;;;1.49;100.00
12624;BME280;6377;42.836;23.998;2024-01-15T08:45:35;94792.44;;;1.60;100.00
12624;BME280;6377;42.836;23.998;2024-01-15T08:48:03;94759.34;;;1.70;100.00
12624;BME280;6377;42.836;23.998;2024-01-15T08:50:31;94760.31;;;1.87;100.00
12624;BME280;6377;42.836;23.998;2024-01-15T08:53:00;94716.44;;;1.82;100.00
12624;BME280;6377;42.836;23.998;2024-01-15T08:55:28;94724.88;;;1.94;100.00
12624;BME280;6377;42.836;23.998;2024-01-15T08:57:55;94727.69;;;2.00;100.00
12624;BME280;6377;42.836;23.998;2024-01-15T09:00:22;94671.31;;;1.82;100.00
12624;BME280;6377;42.836;23.998;2024-01-15T09:02:49;94672.13;;;1.82;100.00
12624;BME280;6377;42.836;23.998;2024-01-15T09:05:26;94704.78;;;2.30;100.00
12624;BME280;6377;42.836;23.998;2024-01-15T09:07:53;94693.66;;;2.45;100.00
12624;BME280;6377;42.836;23.998;2024-01-15T09:10:22;94681.72;;;2.43;100.00
12624;BME280;6377;42.836;23.998;2024-01-15T09:12:49;94674.41;;;2.72;100.00
12624;BME280;6377;42.836;23.998;2024-01-15T09:15:16;94662.47;;;2.69;100.00
12624;BME280;6377;42.836;23.998;2024-01-15T09:17:50;94688.97;;;3.16;100.00
12624;BME280;6377;42.836;23.998;2024-01-15T09:20:18;94657.44;;;3.10;100.00
12624;BME280;6377;42.836;23.998;2024-01-15T09:22:54;94624.44;;;3.09;100.00
12624;BME280;6377;42.836;23.998;2024-01-15T09:25:29;94646.88;;;3.27;100.00
12624;BME280;6377;42.836;23.998;2024-01-15T09:27:57;94640.56;;;3.54;100.00
12624;BME280;6377;42.836;23.998;2024-01-15T09:30:24;94610.00;;;3.47;94.67
12624;BME280;6377;42.836;23.998;2024-01-15T09:32:51;94673.00;;;4.18;95.41
12624;BME280;6377;42.836;23.998;2024-01-15T09:35:18;94637.44;;;4.64;88.92
12624;BME280;6377;42.836;23.998;2024-01-15T09:37:46;94591.25;;;5.09;76.29
12624;BME280;6377;42.836;23.998;2024-01-15T09:40:13;94612.16;;;6.02;66.98
12624;BME280;6377;42.836;23.998;2024-01-15T09:42:43;94593.34;;;6.50;61.56
12624;BME280;6377;42.836;23.998;2024-01-15T09:45:11;94581.75;;;7.03;53.55
12624;BME280;6377;42.836;23.998;2024-01-15T09:47:38;94546.00;;;7.23;51.36
12624;BME280;6377;42.836;23.998;2024-01-15T09:50:08;94567.09;;;7.66;51.46
12624;BME280;6377;42.836;23.998;2024-01-15T09:52:36;94610.09;;;8.15;50.27
12624;BME280;6377;42.836;23.998;2024-01-15T09:55:04;94545.47;;;7.92;50.23
12624;BME280;6377;42.836;23.998;2024-01-15T09:57:39;94545.03;;;7.88;49.12
12624;BME280;6377;42.836;23.998;2024-01-15T10:00:09;94540.81;;;7.94;48.63
12624;BME280;6377;42.836;23.998;2024-01-15T10:02:37;94550.06;;;8.11;48.71
12624;BME280;6377;42.836;23.998;2024-01-15T10:05:06;94526.75;;;8.08;49.25
12624;BME280;6377;42.836;23.998;2024-01-15T10:07:35;94568.97;;;8.70;47.72
12624;BME280;6377;42.836;23.998;2024-01-15T10:10:03;94549.69;;;8.63;47.08
12624;BME280;6377;42.836;23.998;2024-01-15T10:12:30;94528.00;;;8.33;48.73
12624;BME280;6377;42.836;23.998;2024-01-15T10:14:57;94572.53;;;8.90;46.58
12624;BME280;6377;42.836;23.998;2024-01-15T10:17:26;94539.72;;;8.99;45.66
12624;BME280;6377;42.836;23.998;2024-01-15T10:19:53;94566.75;;;9.62;45.10
12624;BME280;6377;42.836;23.998;2024-01-15T10:22:21;94537.69;;;9.55;43.96
12624;BME280;6377;42.836;23.998;2024-01-15T10:24:49;94458.25;;;9.17;43.63
12624;BME280;6377;42.836;23.998;2024-01-15T10:27:16;94528.53;;;9.44;43.57
12624;BME280;6377;42.836;23.998;2024-01-15T10:29:43;94577.06;;;9.50;42.83
12624;BME280;6377;42.836;23.998;2024-01-15T10:32:11;94505.13;;;9.22;43.30
12624;BME280;6377;42.836;23.998;2024-01-15T10:34:40;94366.19;;;8.55;43.65
12624;BME280;6377;42.836;23.998;2024-01-15T10:37:09;94475.53;;;9.33;43.02
12624;BME280;6377;42.836;23.998;2024-01-15T10:39:37;94507.91;;;9.74;42.02
12624;BME280;6377;42.836;23.998;2024-01-15T10:42:05;94507.50;;;9.77;42.62
12624;BME280;6377;42.836;23.998;2024-01-15T10:44:33;94483.69;;;9.51;42.88
12624;BME280;6377;42.836;23.998;2024-01-15T10:47:00;94492.16;;;9.27;42.82
12624;BME280;6377;42.836;23.998;2024-01-15T10:49:27;94475.72;;;9.31;43.34
12624;BME280;6377;42.836;23.998;2024-01-15T10:52:02;94473.75;;;9.53;43.75
12624;BME280;6377;42.836;23.998;2024-01-15T10:54:29;94406.75;;;9.47;43.49
12624;BME280;6377;42.836;23.998;2024-01-15T10:56:57;94408.97;;;9.96;42.43
12624;BME280;6377;42.836;23.998;2024-01-15T10:59:24;94493.13;;;11.03;42.19
12624;BME280;6377;42.836;23.998;2024-01-15T11:01:52;94478.22;;;11.15;41.69
12624;BME280;6377;42.836;23.998;2024-01-15T11:04:20;94452.72;;;11.27;41.18
12624;BME280;6377;42.836;23.998;2024-01-15T11:06:51;94484.97;;;11.80;41.69
12624;BME280;6377;42.836;23.998;2024-01-15T11:09:20;94454.81;;;11.50;41.92
12624;BME280;6377;42.836;23.998;2024-01-15T11:11:52;94441.78;;;11.10;42.46
12624;BME280;6377;42.836;23.998;2024-01-15T11:14:37;94456.91;;;10.97;43.01
12624;BME280;6377;42.836;23.998;2024-01-15T11:17:05;94428.41;;;10.48;43.85
12624;BME280;6377;42.836;23.998;2024-01-15T11:19:36;94421.56;;;10.14;44.37
12624;BME280;6377;42.836;23.998;2024-01-15T11:22:08;94353.94;;;9.67;45.45
12624;BME280;6377;42.836;23.998;2024-01-15T11:24:38;94445.94;;;10.03;45.72
12624;BME280;6377;42.836;23.998;2024-01-15T11:27:06;94403.69;;;9.64;46.33
12624;BME280;6377;42.836;23.998;2024-01-15T11:29:34;94430.53;;;9.80;46.94
12624;BME280;6377;42.836;23.998;2024-01-15T11:32:03;94381.34;;;9.40;46.80
12624;BME280;6377;42.836;23.998;2024-01-15T11:34:53;94439.25;;;9.87;47.59
12624;BME280;6377;42.836;23.998;2024-01-15T11:37:24;94436.00;;;9.85;47.49
12624;BME280;6377;42.836;23.998;2024-01-15T11:39:54;94426.25;;;9.73;47.71
12624;BME280;6377;42.836;23.998;2024-01-15T11:42:22;94424.00;;;9.56;48.42
12624;BME280;6377;42.836;23.998;2024-01-15T11:44:50;94424.59;;;9.72;48.72
12624;BME280;6377;42.836;23.998;2024-01-15T11:47:43;94412.84;;;9.74;48.80
12624;BME280;6377;42.836;23.998;2024-01-15T11:50:14;94373.25;;;9.35;49.00
12624;BME280;6377;42.836;23.998;2024-01-15T11:52:45;94394.38;;;9.41;49.31
12624;BME280;6377;42.836;23.998;2024-01-15T11:55:19;94429.09;;;9.45;49.88
12624;BME280;6377;42.836;23.998;2024-01-15T11:57:50;94424.81;;;9.57;49.90
12624;BME280;6377;42.836;23.998;2024-01-15T12:00:18;94405.94;;;9.47;50.35
12624;BME280;6377;42.836;23.998;2024-01-15T12:02:46;94397.59;;;9.37;50.03
12624;BME280;6377;42.836;23.998;2024-01-15T12:05:15;94272.34;;;8.54;50.83
12624;BME280;6377;42.836;23.998;2024-01-15T12:07:44;94415.28;;;9.49;50.79
12624;BME280;6377;42.836;23.998;2024-01-15T12:10:12;94289.56;;;8.63;50.60
12624;BME280;6377;42.836;23.998;2024-01-15T12:12:57;94404.50;;;9.44;50.97
12624;BME280;6377;42.836;23.998;2024-01-15T12:15:26;94418.31;;;9.46;51.55
12624;BME280;6377;42.836;23.998;2024-01-15T12:17:55;94408.97;;;9.44;51.70
12624;BME280;6377;42.836;23.998;2024-01-15T12:20:24;94418.09;;;9.35;51.28
12624;BME280;6377;42.836;23.998;2024-01-15T12:22:51;94426.22;;;9.46;51.13
12624;BME280;6377;42.836;23.998;2024-01-15T12:25:18;94425.00;;;9.42;50.80
12624;BME280;6377;42.836;23.998;2024-01-15T12:27:47;94359.59;;;8.98;50.02
12624;BME280;6377;42.836;23.998;2024-01-15T12:30:15;94312.09;;;8.72;50.26
12624;BME280;6377;42.836;23.998;2024-01-15T12:32:42;94418.50;;;9.38;50.02
12624;BME280;6377;42.836;23.998;2024-01-15T12:35:10;94388.25;;;9.15;50.73
12624;BME280;6377;42.836;23.998;2024-01-15T12:37:39;94413.63;;;9.35;50.30
12624;BME280;6377;42.836;23.998;2024-01-15T12:40:08;94392.91;;;9.26;50.20
12624;BME280;6377;42.836;23.998;2024-01-15T12:42:36;94289.00;;;8.74;50.19
12624;BME280;6377;42.836;23.998;2024-01-15T12:45:06;94368.16;;;9.46;50.58
12624;BME280;6377;42.836;23.998;2024-01-15T12:47:34;94383.41;;;9.64;50.34
12624;BME280;6377;42.836;23.998;2024-01-15T12:50:01;94402.69;;;9.71;49.50
12624;BME280;6377;42.836;23.998;2024-01-15T12:52:28;94396.97;;;9.81;50.00
12624;BME280;6377;42.836;23.998;2024-01-15T12:54:56;94275.22;;;9.12;48.83
12624;BME280;6377;42.836;23.998;2024-01-15T12:57:23;94378.50;;;9.87;49.36
12624;BME280;6377;42.836;23.998;2024-01-15T12:59:50;94375.88;;;9.74;49.90
12624;BME280;6377;42.836;23.998;2024-01-15T13:02:19;94394.75;;;9.78;49.61
12624;BME280;6377;42.836;23.998;2024-01-15T13:04:46;94388.28;;;9.74;49.93
12624;BME280;6377;42.836;23.998;2024-01-15T13:07:13;94380.16;;;9.69;49.12
12624;BME280;6377;42.836;23.998;2024-01-15T13:09:41;94246.00;;;8.87;49.62
12624;BME280;6377;42.836;23.998;2024-01-15T13:12:08;94407.56;;;9.68;50.13
12624;BME280;6377;42.836;23.998;2024-01-15T13:14:37;94426.03;;;9.68;51.02
12624;BME280;6377;42.836;23.998;2024-01-15T13:17:04;94412.19;;;9.39;50.12
12624;BME280;6377;42.836;23.998;2024-01-15T13:19:33;94394.97;;;9.56;49.53
12624;BME280;6377;42.836;23.998;2024-01-15T13:22:00;94399.63;;;9.61;50.66
12624;BME280;6377;42.836;23.998;2024-01-15T13:24:29;94369.38;;;9.37;50.55
12624;BME280;6377;42.836;23.998;2024-01-15T13:26:56;94390.09;;;9.60;50.88
12624;BME280;6377;42.836;23.998;2024-01-15T13:29:23;94384.41;;;9.50;50.18
12624;BME280;6377;42.836;23.998;2024-01-15T13:31:50;94312.31;;;8.84;50.89
12624;BME280;6377;42.836;23.998;2024-01-15T13:34:17;94284.34;;;8.76;50.47
12624;BME280;6377;42.836;23.998;2024-01-15T13:36:46;94307.06;;;8.90;50.31
12624;BME280;6377;42.836;23.998;2024-01-15T13:39:13;94343.81;;;9.25;50.36
12624;BME280;6377;42.836;23.998;2024-01-15T13:41:44;94369.00;;;9.27;50.72
12624;BME280;6377;42.836;23.998;2024-01-15T13:44:11;94270.75;;;8.60;51.26
12624;BME280;6377;42.836;23.998;2024-01-15T13:46:38;94360.44;;;9.06;50.87
12624;BME280;6377;42.836;23.998;2024-01-15T13:49:05;94324.06;;;8.68;50.68
12624;BME280;6377;42.836;23.998;2024-01-15T13:51:33;94365.91;;;9.04;50.17
12624;BME280;6377;42.836;23.998;2024-01-15T13:54:02;94334.84;;;8.86;50.71
12624;BME280;6377;42.836;23.998;2024-01-15T13:56:30;94237.59;;;8.24;51.13
12624;BME280;6377;42.836;23.998;2024-01-15T14:14:30;94194.56;;;7.91;50.46
12624;BME280;6377;42.836;23.998;2024-01-15T14:16:58;94372.78;;;8.92;50.56
12624;BME280;6377;42.836;23.998;2024-01-15T14:19:26;94242.78;;;8.05;49.86
12624;BME280;6377;42.836;23.998;2024-01-15T14:21:53;94318.50;;;8.43;51.24
12624;BME280;6377;42.836;23.998;2024-01-15T14:24:21;94328.53;;;8.74;51.26
12624;BME280;6377;42.836;23.998;2024-01-15T14:26:56;94329.34;;;8.81;52.08
12624;BME280;6377;42.836;23.998;2024-01-15T14:29:26;94303.56;;;8.64;52.31
12624;BME280;6377;42.836;23.998;2024-01-15T14:31:55;94325.28;;;8.66;51.22
12624;BME280;6377;42.836;23.998;2024-01-15T14:34:22;94246.28;;;8.25;51.47
12624;BME280;6377;42.836;23.998;2024-01-15T14:36:50;94349.25;;;8.97;51.87
12624;BME280;6377;42.836;23.998;2024-01-15T14:39:22;94304.97;;;8.66;50.77
12624;BME280;6377;42.836;23.998;2024-01-15T14:41:50;94260.56;;;8.50;51.04
12624;BME280;6377;42.836;23.998;2024-01-15T14:44:20;94284.50;;;8.62;50.85
12624;BME280;6377;42.836;23.998;2024-01-15T14:47:02;94324.66;;;8.64;51.23
12624;BME280;6377;42.836;23.998;2024-01-15T14:49:29;94315.97;;;8.83;51.99